sensor_id;sensor_type;location;lat;lon;timestamp;P1;durP1;ratioP1;P2;durP2;ratioP2
12288;SDS011;6207;49.308;7.336;2022-10-23T00:00:21;37.43;;;16.57;;
12288;SDS011;6207;49.308;7.336;2022-10-23T00:02:51;39.47;;;16.27;;
12288;SDS011;6207;49.308;7.336;2022-10-23T00:05:20;38.40;;;16.80;;
12288;SDS011;6207;49.308;7.336;2022-10-23T00:07:51;39.73;;;17.40;;
12288;SDS011;6207;49.308;7.336;2022-10-23T00:10:19;23.37;;;13.97;;
12288;SDS011;6207;49.308;7.336;2022-10-23T00:12:48;32.97;;;13.83;;
12288;SDS011;6207;49.308;7.336;2022-10-23T00:15:16;31.37;;;12.73;;
12288;SDS011;6207;49.308;7.336;2022-10-23T00:17:45;24.87;;;12.27;;
12288;SDS011;6207;49.308;7.336;2022-10-23T00:20:13;24.10;;;12.63;;
12288;SDS011;6207;49.308;7.336;2022-10-23T00:22:41;25.13;;;12.87;;
12288;SDS011;6207;49.308;7.336;2022-10-23T00:25:08;30.83;;;14.30;;
12288;SDS011;6207;49.308;7.336;2022-10-23T00:27:36;28.80;;;14.43;;
12288;SDS011;6207;49.308;7.336;2022-10-23T00:30:03;25.27;;;13.37;;
12288;SDS011;6207;49.308;7.336;2022-10-23T00:32:30;30.83;;;14.97;;
12288;SDS011;6207;49.308;7.336;2022-10-23T00:34:57;29.00;;;13.77;;
12288;SDS011;6207;49.308;7.336;2022-10-23T00:37:23;32.07;;;15.87;;
12288;SDS011;6207;49.308;7.336;2022-10-23T00:39:50;41.63;;;18.67;;
12288;SDS011;6207;49.308;7.336;2022-10-23T00:42:17;31.97;;;16.43;;
12288;SDS011;6207;49.308;7.336;2022-10-23T00:47:12;29.80;;;13.90;;
12288;SDS011;6207;49.308;7.336;2022-10-23T00:49:39;30.50;;;13.73;;
12288;SDS011;6207;49.308;7.336;2022-10-23T00:52:08;28.80;;;13.43;;
12288;SDS011;6207;49.308;7.336;2022-10-23T00:54:39;25.80;;;13.40;;
12288;SDS011;6207;49.308;7.336;2022-10-23T00:57:10;25.73;;;15.03;;
12288;SDS011;6207;49.308;7.336;2022-10-23T00:59:39;28.50;;;14.20;;
12288;SDS011;6207;49.308;7.336;2022-10-23T01:02:07;25.47;;;13.73;;
12288;SDS011;6207;49.308;7.336;2022-10-23T01:04:35;29.77;;;13.63;;
12288;SDS011;6207;49.308;7.336;2022-10-23T01:07:12;25.87;;;12.77;;
12288;SDS011;6207;49.308;7.336;2022-10-23T01:09:54;23.57;;;12.03;;
12288;SDS011;6207;49.308;7.336;2022-10-23T01:17:56;28.07;;;12.00;;
12288;SDS011;6207;49.308;7.336;2022-10-23T01:25:39;22.03;;;12.67;;
12288;SDS011;6207;49.308;7.336;2022-10-23T01:28:12;23.37;;;12.47;;
12288;SDS011;6207;49.308;7.336;2022-10-23T01:30:44;24.47;;;11.57;;
12288;SDS011;6207;49.308;7.336;2022-10-23T01:33:23;24.27;;;11.60;;
12288;SDS011;6207;49.308;7.336;2022-10-23T01:35:57;19.63;;;10.73;;
12288;SDS011;6207;49.308;7.336;2022-10-23T01:38:30;27.07;;;10.70;;
12288;SDS011;6207;49.308;7.336;2022-10-23T01:41:12;19.90;;;10.43;;
12288;SDS011;6207;49.308;7.336;2022-10-23T01:43:48;17.50;;;9.60;;
12288;SDS011;6207;49.308;7.336;2022-10-23T01:46:19;23.20;;;9.87;;
12288;SDS011;6207;49.308;7.336;2022-10-23T01:48:49;20.10;;;10.27;;
12288;SDS011;6207;49.308;7.336;2022-10-23T01:51:20;20.23;;;10.20;;
12288;SDS011;6207;49.308;7.336;2022-10-23T01:53:51;21.43;;;10.80;;
12288;SDS011;6207;49.308;7.336;2022-10-23T01:56:25;17.73;;;9.63;;
12288;SDS011;6207;49.308;7.336;2022-10-23T01:58:59;16.87;;;9.43;;
12288;SDS011;6207;49.308;7.336;2022-10-23T02:01:30;20.63;;;10.60;;
12288;SDS011;6207;49.308;7.336;2022-10-23T02:04:00;21.50;;;8.73;;
12288;SDS011;6207;49.308;7.336;2022-10-23T02:06:31;17.37;;;8.77;;
12288;SDS011;6207;49.308;7.336;2022-10-23T02:08:58;20.10;;;9.07;;
12288;SDS011;6207;49.308;7.336;2022-10-23T02:11:25;14.80;;;8.93;;
12288;SDS011;6207;49.308;7.336;2022-10-23T02:14:03;19.67;;;9.50;;
12288;SDS011;6207;49.308;7.336;2022-10-23T02:16:40;19.80;;;8.97;;
12288;SDS011;6207;49.308;7.336;2022-10-23T02:19:29;17.20;;;8.80;;
12288;SDS011;6207;49.308;7.336;2022-10-23T02:24:32;14.83;;;8.70;;
12288;SDS011;6207;49.308;7.336;2022-10-23T02:27:04;13.97;;;9.07;;
12288;SDS011;6207;49.308;7.336;2022-10-23T02:29:39;17.10;;;9.00;;
12288;SDS011;6207;49.308;7.336;2022-10-23T02:32:22;17.33;;;8.90;;
12288;SDS011;6207;49.308;7.336;2022-10-23T02:34:52;16.33;;;8.87;;
12288;SDS011;6207;49.308;7.336;2022-10-23T02:37:19;19.27;;;9.13;;
12288;SDS011;6207;49.308;7.336;2022-10-23T02:39:46;18.07;;;8.37;;
12288;SDS011;6207;49.308;7.336;2022-10-23T02:42:18;17.50;;;8.93;;
12288;SDS011;6207;49.308;7.336;2022-10-23T02:45:10;16.13;;;8.90;;
12288;SDS011;6207;49.308;7.336;2022-10-23T02:47:51;16.43;;;8.10;;
12288;SDS011;6207;49.308;7.336;2022-10-23T02:50:29;18.60;;;8.83;;
12288;SDS011;6207;49.308;7.336;2022-10-23T02:53:19;16.93;;;8.80;;
12288;SDS011;6207;49.308;7.336;2022-10-23T03:01:10;13.13;;;7.33;;
12288;SDS011;6207;49.308;7.336;2022-10-23T03:03:55;14.77;;;8.17;;
12288;SDS011;6207;49.308;7.336;2022-10-23T03:06:24;16.17;;;9.00;;
12288;SDS011;6207;49.308;7.336;2022-10-23T03:08:52;15.93;;;8.50;;
12288;SDS011;6207;49.308;7.336;2022-10-23T03:11:23;17.67;;;8.67;;
12288;SDS011;6207;49.308;7.336;2022-10-23T03:13:50;14.40;;;8.40;;
12288;SDS011;6207;49.308;7.336;2022-10-23T03:16:16;17.77;;;8.67;;
12288;SDS011;6207;49.308;7.336;2022-10-23T03:18:43;17.87;;;8.63;;
12288;SDS011;6207;49.308;7.336;2022-10-23T03:21:10;17.77;;;8.13;;
12288;SDS011;6207;49.308;7.336;2022-10-23T03:23:36;14.10;;;8.47;;
12288;SDS011;6207;49.308;7.336;2022-10-23T03:26:04;16.97;;;8.40;;
12288;SDS011;6207;49.308;7.336;2022-10-23T03:28:31;17.80;;;8.63;;
12288;SDS011;6207;49.308;7.336;2022-10-23T03:30:57;17.10;;;8.07;;
12288;SDS011;6207;49.308;7.336;2022-10-23T03:33:27;15.57;;;9.00;;
12288;SDS011;6207;49.308;7.336;2022-10-23T03:35:55;17.47;;;8.83;;
12288;SDS011;6207;49.308;7.336;2022-10-23T03:38:21;17.20;;;9.40;;
12288;SDS011;6207;49.308;7.336;2022-10-23T03:40:48;15.40;;;8.60;;
12288;SDS011;6207;49.308;7.336;2022-10-23T03:43:15;16.20;;;9.87;;
12288;SDS011;6207;49.308;7.336;2022-10-23T03:45:42;13.83;;;8.40;;
12288;SDS011;6207;49.308;7.336;2022-10-23T03:48:08;15.70;;;8.37;;
12288;SDS011;6207;49.308;7.336;2022-10-23T03:50:35;13.57;;;8.53;;
12288;SDS011;6207;49.308;7.336;2022-10-23T03:53:02;17.23;;;8.43;;
12288;SDS011;6207;49.308;7.336;2022-10-23T03:55:29;15.77;;;9.63;;
12288;SDS011;6207;49.308;7.336;2022-10-23T03:57:57;17.77;;;9.97;;
12288;SDS011;6207;49.308;7.336;2022-10-23T04:00:24;14.37;;;9.17;;
12288;SDS011;6207;49.308;7.336;2022-10-23T04:02:50;12.13;;;8.43;;
12288;SDS011;6207;49.308;7.336;2022-10-23T04:05:17;13.10;;;7.80;;
12288;SDS011;6207;49.308;7.336;2022-10-23T04:07:44;16.37;;;8.27;;
12288;SDS011;6207;49.308;7.336;2022-10-23T04:10:10;14.40;;;10.10;;
12288;SDS011;6207;49.308;7.336;2022-10-23T04:12:37;12.77;;;9.30;;
12288;SDS011;6207;49.308;7.336;2022-10-23T04:15:04;16.73;;;9.20;;
12288;SDS011;6207;49.308;7.336;2022-10-23T04:17:31;18.43;;;10.23;;
12288;SDS011;6207;49.308;7.336;2022-10-23T04:19:58;14.83;;;9.13;;
12288;SDS011;6207;49.308;7.336;2022-10-23T04:22:25;20.40;;;10.03;;
12288;SDS011;6207;49.308;7.336;2022-10-23T04:24:53;16.23;;;8.50;;
12288;SDS011;6207;49.308;7.336;2022-10-23T04:27:20;17.40;;;10.30;;
12288;SDS011;6207;49.308;7.336;2022-10-23T04:29:47;20.73;;;10.03;;
12288;SDS011;6207;49.308;7.336;2022-10-23T04:32:14;16.03;;;8.90;;
12288;SDS011;6207;49.308;7.336;2022-10-23T04:34:41;20.73;;;9.70;;
12288;SDS011;6207;49.308;7.336;2022-10-23T04:37:08;21.57;;;9.87;;
12288;SDS011;6207;49.308;7.336;2022-10-23T04:39:34;19.10;;;9.97;;
12288;SDS011;6207;49.308;7.336;2022-10-23T04:42:01;13.80;;;9.70;;
12288;SDS011;6207;49.308;7.336;2022-10-23T04:44:28;11.07;;;8.03;;
12288;SDS011;6207;49.308;7.336;2022-10-23T04:46:54;17.00;;;7.93;;
12288;SDS011;6207;49.308;7.336;2022-10-23T04:49:21;13.67;;;8.67;;
12288;SDS011;6207;49.308;7.336;2022-10-23T04:51:48;15.17;;;8.50;;
12288;SDS011;6207;49.308;7.336;2022-10-23T04:54:15;12.20;;;8.13;;
12288;SDS011;6207;49.308;7.336;2022-10-23T04:56:41;14.30;;;8.10;;
12288;SDS011;6207;49.308;7.336;2022-10-23T04:59:08;13.37;;;7.30;;
12288;SDS011;6207;49.308;7.336;2022-10-23T05:01:35;13.37;;;7.70;;
12288;SDS011;6207;49.308;7.336;2022-10-23T05:04:02;11.20;;;7.33;;
12288;SDS011;6207;49.308;7.336;2022-10-23T05:06:29;13.63;;;7.87;;
12288;SDS011;6207;49.308;7.336;2022-10-23T05:08:55;15.53;;;7.90;;
12288;SDS011;6207;49.308;7.336;2022-10-23T05:11:22;16.60;;;7.93;;
12288;SDS011;6207;49.308;7.336;2022-10-23T05:13:49;14.30;;;7.90;;
12288;SDS011;6207;49.308;7.336;2022-10-23T05:17:18;14.57;;;7.63;;
12288;SDS011;6207;49.308;7.336;2022-10-23T05:19:26;9.70;;;8.00;;
12288;SDS011;6207;49.308;7.336;2022-10-23T05:21:58;14.03;;;9.10;;
12288;SDS011;6207;49.308;7.336;2022-10-23T05:24:26;14.23;;;9.80;;
12288;SDS011;6207;49.308;7.336;2022-10-23T05:26:53;17.13;;;8.23;;
12288;SDS011;6207;49.308;7.336;2022-10-23T05:29:20;12.47;;;8.10;;
12288;SDS011;6207;49.308;7.336;2022-10-23T05:31:47;10.23;;;7.40;;
12288;SDS011;6207;49.308;7.336;2022-10-23T05:34:19;15.50;;;7.60;;
12288;SDS011;6207;49.308;7.336;2022-10-23T05:36:47;19.07;;;12.53;;
12288;SDS011;6207;49.308;7.336;2022-10-23T05:39:14;17.03;;;9.83;;
12288;SDS011;6207;49.308;7.336;2022-10-23T05:41:41;15.30;;;7.23;;
12288;SDS011;6207;49.308;7.336;2022-10-23T05:44:09;25.53;;;15.60;;
12288;SDS011;6207;49.308;7.336;2022-10-23T05:46:39;22.93;;;11.77;;
12288;SDS011;6207;49.308;7.336;2022-10-23T05:49:07;16.17;;;8.93;;
12288;SDS011;6207;49.308;7.336;2022-10-23T05:51:35;18.13;;;9.60;;
12288;SDS011;6207;49.308;7.336;2022-10-23T05:54:02;20.03;;;9.40;;
12288;SDS011;6207;49.308;7.336;2022-10-23T05:56:33;15.67;;;7.77;;
12288;SDS011;6207;49.308;7.336;2022-10-23T05:59:00;11.27;;;7.20;;
12288;SDS011;6207;49.308;7.336;2022-10-23T06:01:27;15.50;;;8.10;;
12288;SDS011;6207;49.308;7.336;2022-10-23T06:03:54;12.47;;;7.30;;
12288;SDS011;6207;49.308;7.336;2022-10-23T06:06:21;12.60;;;8.27;;
12288;SDS011;6207;49.308;7.336;2022-10-23T06:08:48;13.20;;;7.93;;
12288;SDS011;6207;49.308;7.336;2022-10-23T06:11:15;16.47;;;8.87;;
12288;SDS011;6207;49.308;7.336;2022-10-23T06:13:42;13.60;;;8.50;;
12288;SDS011;6207;49.308;7.336;2022-10-23T06:16:17;13.53;;;8.83;;
12288;SDS011;6207;49.308;7.336;2022-10-23T06:18:45;16.60;;;9.30;;
12288;SDS011;6207;49.308;7.336;2022-10-23T06:21:13;12.30;;;8.47;;
12288;SDS011;6207;49.308;7.336;2022-10-23T06:23:40;11.40;;;7.83;;
12288;SDS011;6207;49.308;7.336;2022-10-23T06:26:09;22.57;;;9.50;;
12288;SDS011;6207;49.308;7.336;2022-10-23T06:28:37;15.53;;;8.30;;
12288;SDS011;6207;49.308;7.336;2022-10-23T06:31:05;14.40;;;8.23;;
12288;SDS011;6207;49.308;7.336;2022-10-23T06:33:33;15.67;;;8.47;;
12288;SDS011;6207;49.308;7.336;2022-10-23T06:36:00;16.40;;;9.00;;
12288;SDS011;6207;49.308;7.336;2022-10-23T06:38:28;17.13;;;10.53;;
12288;SDS011;6207;49.308;7.336;2022-10-23T06:41:02;15.97;;;9.80;;
12288;SDS011;6207;49.308;7.336;2022-10-23T06:43:29;26.97;;;15.77;;
12288;SDS011;6207;49.308;7.336;2022-10-23T06:45:59;22.27;;;13.90;;
12288;SDS011;6207;49.308;7.336;2022-10-23T06:48:27;19.87;;;12.50;;
12288;SDS011;6207;49.308;7.336;2022-10-23T06:50:54;19.30;;;13.43;;
12288;SDS011;6207;49.308;7.336;2022-10-23T06:53:21;17.67;;;12.67;;
12288;SDS011;6207;49.308;7.336;2022-10-23T06:55:51;16.67;;;11.30;;
12288;SDS011;6207;49.308;7.336;2022-10-23T06:58:20;14.60;;;11.37;;
12288;SDS011;6207;49.308;7.336;2022-10-23T07:00:47;16.83;;;10.13;;
12288;SDS011;6207;49.308;7.336;2022-10-23T07:03:14;15.60;;;10.50;;
12288;SDS011;6207;49.308;7.336;2022-10-23T07:05:41;17.67;;;10.53;;
12288;SDS011;6207;49.308;7.336;2022-10-23T07:08:10;17.93;;;10.63;;
12288;SDS011;6207;49.308;7.336;2022-10-23T07:10:36;14.77;;;10.57;;
12288;SDS011;6207;49.308;7.336;2022-10-23T07:13:03;17.53;;;10.50;;
12288;SDS011;6207;49.308;7.336;2022-10-23T07:15:30;17.23;;;10.37;;
12288;SDS011;6207;49.308;7.336;2022-10-23T07:17:57;13.03;;;10.53;;
12288;SDS011;6207;49.308;7.336;2022-10-23T07:20:24;14.23;;;10.17;;
12288;SDS011;6207;49.308;7.336;2022-10-23T07:22:54;13.27;;;11.13;;
12288;SDS011;6207;49.308;7.336;2022-10-23T07:25:22;12.10;;;10.90;;
12288;SDS011;6207;49.308;7.336;2022-10-23T07:27:50;15.70;;;10.90;;
12288;SDS011;6207;49.308;7.336;2022-10-23T07:30:17;13.53;;;11.47;;
12288;SDS011;6207;49.308;7.336;2022-10-23T07:32:44;11.67;;;10.70;;
12288;SDS011;6207;49.308;7.336;2022-10-23T07:35:11;11.83;;;10.60;;
12288;SDS011;6207;49.308;7.336;2022-10-23T07:37:39;12.70;;;11.77;;
12288;SDS011;6207;49.308;7.336;2022-10-23T07:40:07;14.13;;;13.13;;
12288;SDS011;6207;49.308;7.336;2022-10-23T07:42:34;14.47;;;13.47;;
12288;SDS011;6207;49.308;7.336;2022-10-23T07:45:01;14.63;;;13.60;;
12288;SDS011;6207;49.308;7.336;2022-10-23T07:47:29;13.97;;;12.87;;
12288;SDS011;6207;49.308;7.336;2022-10-23T07:49:57;14.27;;;13.13;;
12288;SDS011;6207;49.308;7.336;2022-10-23T07:52:24;12.80;;;11.80;;
12288;SDS011;6207;49.308;7.336;2022-10-23T07:54:51;13.53;;;12.10;;
12288;SDS011;6207;49.308;7.336;2022-10-23T07:57:18;12.83;;;11.93;;
12288;SDS011;6207;49.308;7.336;2022-10-23T07:59:45;12.83;;;11.93;;
12288;SDS011;6207;49.308;7.336;2022-10-23T08:02:13;12.67;;;11.87;;
12288;SDS011;6207;49.308;7.336;2022-10-23T08:04:40;11.97;;;10.90;;
12288;SDS011;6207;49.308;7.336;2022-10-23T08:07:07;12.00;;;10.80;;
12288;SDS011;6207;49.308;7.336;2022-10-23T08:09:35;12.33;;;11.13;;
12288;SDS011;6207;49.308;7.336;2022-10-23T08:12:03;11.70;;;10.60;;
12288;SDS011;6207;49.308;7.336;2022-10-23T08:14:30;11.53;;;10.43;;
12288;SDS011;6207;49.308;7.336;2022-10-23T08:16:57;11.77;;;10.77;;
12288;SDS011;6207;49.308;7.336;2022-10-23T08:19:24;11.50;;;10.60;;
12288;SDS011;6207;49.308;7.336;2022-10-23T08:21:50;12.27;;;11.07;;
12288;SDS011;6207;49.308;7.336;2022-10-23T08:24:19;11.93;;;10.93;;
12288;SDS011;6207;49.308;7.336;2022-10-23T08:26:47;11.50;;;10.40;;
12288;SDS011;6207;49.308;7.336;2022-10-23T08:29:15;14.90;;;11.63;;
12288;SDS011;6207;49.308;7.336;2022-10-23T08:31:42;11.50;;;10.57;;
12288;SDS011;6207;49.308;7.336;2022-10-23T08:34:09;11.13;;;10.13;;
12288;SDS011;6207;49.308;7.336;2022-10-23T08:36:36;11.57;;;10.47;;
12288;SDS011;6207;49.308;7.336;2022-10-23T08:39:04;12.63;;;11.13;;
12288;SDS011;6207;49.308;7.336;2022-10-23T08:41:41;11.60;;;10.53;;
12288;SDS011;6207;49.308;7.336;2022-10-23T08:52:59;11.00;;;9.90;;
12288;SDS011;6207;49.308;7.336;2022-10-23T08:55:16;11.30;;;9.90;;
12288;SDS011;6207;49.308;7.336;2022-10-23T08:58:06;11.20;;;10.10;;
12288;SDS011;6207;49.308;7.336;2022-10-23T09:00:41;10.50;;;9.70;;
12288;SDS011;6207;49.308;7.336;2022-10-23T09:03:09;11.80;;;9.97;;
12288;SDS011;6207;49.308;7.336;2022-10-23T09:08:23;9.33;;;8.63;;
12288;SDS011;6207;49.308;7.336;2022-10-23T09:11:25;9.63;;;8.63;;
12288;SDS011;6207;49.308;7.336;2022-10-23T09:19:58;7.80;;;7.20;;
12288;SDS011;6207;49.308;7.336;2022-10-23T09:22:26;8.00;;;7.38;;
12288;SDS011;6207;49.308;7.336;2022-10-23T09:24:53;9.05;;;8.25;;
12288;SDS011;6207;49.308;7.336;2022-10-23T09:27:20;8.47;;;7.63;;
12288;SDS011;6207;49.308;7.336;2022-10-23T09:29:48;8.37;;;7.37;;
12288;SDS011;6207;49.308;7.336;2022-10-23T09:32:17;8.40;;;7.50;;
12288;SDS011;6207;49.308;7.336;2022-10-23T09:34:52;9.05;;;8.18;;
12288;SDS011;6207;49.308;7.336;2022-10-23T09:37:22;12.82;;;11.48;;
12288;SDS011;6207;49.308;7.336;2022-10-23T09:40:01;9.45;;;8.60;;
12288;SDS011;6207;49.308;7.336;2022-10-23T09:42:49;8.70;;;8.10;;
12288;SDS011;6207;49.308;7.336;2022-10-23T09:45:26;9.18;;;8.38;;
12288;SDS011;6207;49.308;7.336;2022-10-23T09:48:05;9.45;;;8.70;;
12288;SDS011;6207;49.308;7.336;2022-10-23T09:50:49;9.10;;;8.50;;
12288;SDS011;6207;49.308;7.336;2022-10-23T09:53:24;9.02;;;8.32;;
12288;SDS011;6207;49.308;7.336;2022-10-23T09:55:56;9.40;;;8.60;;
12288;SDS011;6207;49.308;7.336;2022-10-23T09:58:30;10.05;;;9.27;;
12288;SDS011;6207;49.308;7.336;2022-10-23T10:01:00;10.15;;;9.32;;
12288;SDS011;6207;49.308;7.336;2022-10-23T10:03:27;9.45;;;8.65;;
12288;SDS011;6207;49.308;7.336;2022-10-23T10:06:01;8.50;;;7.78;;
12288;SDS011;6207;49.308;7.336;2022-10-23T10:08:42;8.57;;;7.85;;
12288;SDS011;6207;49.308;7.336;2022-10-23T10:16:49;8.38;;;7.57;;
12288;SDS011;6207;49.308;7.336;2022-10-23T10:19:26;8.18;;;7.47;;
12288;SDS011;6207;49.308;7.336;2022-10-23T10:24:46;7.25;;;6.38;;
12288;SDS011;6207;49.308;7.336;2022-10-23T10:27:58;8.25;;;6.57;;
12288;SDS011;6207;49.308;7.336;2022-10-23T10:30:52;6.95;;;6.38;;
12288;SDS011;6207;49.308;7.336;2022-10-23T10:33:35;6.53;;;6.05;;
12288;SDS011;6207;49.308;7.336;2022-10-23T10:38:58;6.50;;;6.05;;
12288;SDS011;6207;49.308;7.336;2022-10-23T10:52:44;6.00;;;5.40;;
12288;SDS011;6207;49.308;7.336;2022-10-23T10:55:17;5.57;;;5.20;;
12288;SDS011;6207;49.308;7.336;2022-10-23T10:57:49;5.63;;;5.10;;
12288;SDS011;6207;49.308;7.336;2022-10-23T11:00:42;5.40;;;5.10;;
12288;SDS011;6207;49.308;7.336;2022-10-23T11:03:26;8.00;;;5.57;;
12288;SDS011;6207;49.308;7.336;2022-10-23T11:05:54;5.70;;;5.28;;
12288;SDS011;6207;49.308;7.336;2022-10-23T11:08:37;5.68;;;5.38;;
12288;SDS011;6207;49.308;7.336;2022-10-23T11:11:25;6.53;;;5.68;;
12288;SDS011;6207;49.308;7.336;2022-10-23T11:14:06;6.15;;;5.75;;
12288;SDS011;6207;49.308;7.336;2022-10-23T11:16:41;6.00;;;5.63;;
12288;SDS011;6207;49.308;7.336;2022-10-23T11:19:22;6.25;;;5.80;;
12288;SDS011;6207;49.308;7.336;2022-10-23T11:25:00;6.40;;;5.90;;
12288;SDS011;6207;49.308;7.336;2022-10-23T11:39:19;6.70;;;6.13;;
12288;SDS011;6207;49.308;7.336;2022-10-23T11:41:52;6.45;;;5.95;;
12288;SDS011;6207;49.308;7.336;2022-10-23T11:44:27;6.50;;;5.90;;
12288;SDS011;6207;49.308;7.336;2022-10-23T22:21:18;13.25;;;9.40;;
12288;SDS011;6207;49.308;7.336;2022-10-23T22:23:47;14.55;;;10.55;;
12288;SDS011;6207;49.308;7.336;2022-10-23T22:26:19;10.52;;;9.35;;
12288;SDS011;6207;49.308;7.336;2022-10-23T22:28:50;12.40;;;9.18;;
12288;SDS011;6207;49.308;7.336;2022-10-23T22:31:19;11.13;;;9.20;;
12288;SDS011;6207;49.308;7.336;2022-10-23T22:33:48;11.45;;;9.60;;
12288;SDS011;6207;49.308;7.336;2022-10-23T22:36:15;15.68;;;9.70;;
12288;SDS011;6207;49.308;7.336;2022-10-23T22:38:42;12.93;;;10.10;;
12288;SDS011;6207;49.308;7.336;2022-10-23T22:41:10;16.75;;;9.25;;
12288;SDS011;6207;49.308;7.336;2022-10-23T22:43:37;12.48;;;9.52;;
12288;SDS011;6207;49.308;7.336;2022-10-23T22:46:11;14.48;;;9.88;;
12288;SDS011;6207;49.308;7.336;2022-10-23T22:48:38;10.40;;;9.40;;
12288;SDS011;6207;49.308;7.336;2022-10-23T22:51:07;10.73;;;9.27;;
12288;SDS011;6207;49.308;7.336;2022-10-23T22:53:36;12.85;;;9.45;;
12288;SDS011;6207;49.308;7.336;2022-10-23T22:56:07;11.90;;;8.85;;
12288;SDS011;6207;49.308;7.336;2022-10-23T22:58:37;13.45;;;9.98;;
12288;SDS011;6207;49.308;7.336;2022-10-23T23:03:55;14.20;;;9.02;;
12288;SDS011;6207;49.308;7.336;2022-10-23T23:06:42;12.50;;;9.40;;
12288;SDS011;6207;49.308;7.336;2022-10-23T23:09:12;14.68;;;9.65;;
12288;SDS011;6207;49.308;7.336;2022-10-23T23:11:43;13.77;;;10.13;;
12288;SDS011;6207;49.308;7.336;2022-10-23T23:14:17;10.73;;;9.63;;
12288;SDS011;6207;49.308;7.336;2022-10-23T23:16:49;10.75;;;9.27;;
12288;SDS011;6207;49.308;7.336;2022-10-23T23:19:19;13.55;;;9.40;;
12288;SDS011;6207;49.308;7.336;2022-10-23T23:21:48;9.82;;;8.98;;
12288;SDS011;6207;49.308;7.336;2022-10-23T23:24:16;13.02;;;10.60;;
12288;SDS011;6207;49.308;7.336;2022-10-23T23:26:42;11.13;;;9.77;;
12288;SDS011;6207;49.308;7.336;2022-10-23T23:29:09;12.88;;;9.48;;
12288;SDS011;6207;49.308;7.336;2022-10-23T23:31:36;11.70;;;10.52;;
12288;SDS011;6207;49.308;7.336;2022-10-23T23:34:04;13.98;;;9.88;;
12288;SDS011;6207;49.308;7.336;2022-10-23T23:36:31;12.55;;;9.15;;
12288;SDS011;6207;49.308;7.336;2022-10-23T23:38:59;13.35;;;10.05;;
12288;SDS011;6207;49.308;7.336;2022-10-23T23:41:26;12.93;;;10.05;;
12288;SDS011;6207;49.308;7.336;2022-10-23T23:43:54;12.68;;;9.75;;
12288;SDS011;6207;49.308;7.336;2022-10-23T23:46:23;11.45;;;10.32;;
12288;SDS011;6207;49.308;7.336;2022-10-23T23:48:50;15.02;;;11.02;;
12288;SDS011;6207;49.308;7.336;2022-10-23T23:51:18;13.85;;;10.27;;
12288;SDS011;6207;49.308;7.336;2022-10-23T23:53:50;16.00;;;10.38;;
12288;SDS011;6207;49.308;7.336;2022-10-23T23:56:17;12.05;;;10.40;;
12288;SDS011;6207;49.308;7.336;2022-10-23T23:58:44;14.75;;;10.20;;
